createdAt,value
2024-05-09T00:00:41.227Z,10.99
2024-05-09T00:03:10.248Z,10.94
2024-05-09T00:05:41.547Z,10.93
2024-05-09T00:08:12.340Z,10.90
2024-05-09T00:10:40.821Z,10.90
2024-05-09T00:13:08.799Z,10.88
2024-05-09T00:15:36.600Z,10.85
2024-05-09T00:18:05.547Z,10.78
2024-05-09T00:20:38.538Z,10.75
2024-05-09T00:23:09.365Z,10.76
2024-05-09T00:25:37.779Z,10.69
2024-05-09T00:28:05.449Z,10.68
2024-05-09T00:30:35.600Z,10.67
2024-05-09T00:33:06.537Z,10.62
2024-05-09T00:35:35.231Z,10.61
2024-05-09T00:38:02.378Z,10.55
2024-05-09T00:40:39.743Z,10.54
2024-05-09T00:43:10.066Z,10.57
2024-05-09T00:45:37.244Z,10.51
2024-05-09T00:48:07.708Z,10.49
2024-05-09T00:50:41.508Z,10.47
2024-05-09T00:53:11.994Z,10.41
2024-05-09T00:55:40.244Z,10.39
2024-05-09T00:58:09.967Z,10.34
2024-05-09T01:00:40.018Z,10.30
2024-05-09T01:03:13.497Z,10.25
2024-05-09T01:05:43.631Z,10.23
2024-05-09T01:08:11.923Z,10.19
2024-05-09T01:10:42.610Z,10.19
2024-05-09T01:13:11.639Z,10.16
2024-05-09T01:15:38.508Z,10.17
2024-05-09T01:18:11.012Z,10.15
2024-05-09T01:20:42.466Z,10.14
2024-05-09T01:23:12.774Z,10.07
2024-05-09T01:25:40.855Z,10.05
2024-05-09T01:28:07.800Z,10.04
2024-05-09T01:30:37.106Z,10.00
2024-05-09T01:33:10.367Z,9.97
2024-05-09T01:35:41.478Z,9.94
2024-05-09T01:38:10.043Z,9.91
2024-05-09T01:40:39.884Z,9.85
2024-05-09T01:43:09.756Z,9.84
2024-05-09T01:45:38.668Z,9.83
2024-05-09T01:48:06.700Z,9.82
2024-05-09T01:50:39.225Z,9.83
2024-05-09T01:53:15.002Z,9.80
2024-05-09T01:55:42.573Z,9.76
2024-05-09T01:58:10.052Z,9.78
2024-05-09T02:00:40.925Z,9.78
2024-05-09T02:03:13.566Z,9.81
2024-05-09T02:05:44.493Z,9.79
2024-05-09T02:08:20.127Z,9.78
2024-05-09T02:10:48.642Z,9.77
2024-05-09T02:13:16.422Z,9.76
2024-05-09T02:15:43.584Z,9.74
2024-05-09T02:18:11.098Z,9.75
2024-05-09T02:20:40.898Z,9.77
2024-05-09T02:23:08.886Z,9.71
2024-05-09T02:25:35.924Z,9.75
2024-05-09T02:28:03.009Z,9.74
2024-05-09T02:30:38.717Z,9.69
2024-05-09T02:33:10.931Z,9.63
2024-05-09T02:35:39.996Z,9.60
2024-05-09T02:38:07.032Z,9.62
2024-05-09T02:40:37.880Z,9.60
2024-05-09T02:43:08.300Z,9.57
2024-05-09T02:45:36.016Z,9.54
2024-05-09T02:48:03.202Z,9.51
2024-05-09T02:50:37.281Z,9.47
2024-05-09T02:53:10.280Z,9.44
2024-05-09T02:55:41.739Z,9.44
2024-05-09T02:58:09.908Z,9.44
2024-05-09T03:00:40.594Z,9.38
2024-05-09T03:03:12.898Z,9.39
2024-05-09T03:05:47.314Z,9.34
2024-05-09T03:08:14.621Z,9.32
2024-05-09T03:10:41.776Z,9.30
2024-05-09T03:13:14.487Z,9.32
2024-05-09T03:15:43.019Z,9.30
2024-05-09T03:18:13.070Z,9.27
2024-05-09T03:20:40.547Z,9.27
2024-05-09T03:23:09.357Z,9.26
2024-05-09T03:25:37.739Z,9.24
2024-05-09T03:28:05.728Z,9.25
2024-05-09T03:30:40.056Z,9.24
2024-05-09T03:33:20.168Z,9.21
2024-05-09T03:35:51.026Z,9.18
2024-05-09T03:38:18.535Z,9.14
2024-05-09T03:40:47.265Z,9.12
2024-05-09T03:43:14.810Z,9.10
2024-05-09T03:45:47.680Z,9.10
2024-05-09T03:48:14.873Z,9.12
2024-05-09T03:50:42.055Z,9.06
2024-05-09T03:53:13.497Z,9.08
2024-05-09T03:55:40.985Z,9.08
2024-05-09T03:58:08.699Z,9.08
2024-05-09T04:00:39.290Z,9.12
2024-05-09T04:03:10.363Z,9.23
2024-05-09T04:05:45.016Z,9.34
2024-05-09T04:08:12.150Z,9.41
2024-05-09T04:10:39.319Z,9.43
2024-05-09T04:13:06.310Z,9.50
2024-05-09T04:15:33.335Z,9.56
2024-05-09T04:18:01.304Z,9.61
2024-05-09T04:20:36.715Z,9.68
2024-05-09T04:23:08.379Z,9.78
2024-05-09T04:25:36.202Z,9.85
2024-05-09T04:28:03.280Z,9.94
2024-05-09T04:30:36.844Z,10.05
2024-05-09T04:33:08.879Z,10.16
2024-05-09T04:35:38.998Z,10.26
2024-05-09T04:38:06.607Z,10.38
2024-05-09T04:40:36.322Z,10.45
2024-05-09T04:43:14.338Z,10.56
2024-05-09T04:45:41.666Z,10.61
2024-05-09T04:48:09.060Z,10.73
2024-05-09T04:50:38.774Z,10.83
2024-05-09T04:53:09.413Z,10.90
2024-05-09T04:55:37.738Z,10.99
2024-05-09T04:58:05.675Z,11.05
2024-05-09T05:00:37.111Z,11.17
2024-05-09T05:03:10.201Z,11.26
2024-05-09T05:05:43.579Z,11.43
2024-05-09T05:08:16.647Z,11.55
2024-05-09T05:10:44.711Z,11.57
2024-05-09T05:13:25.182Z,11.63
2024-05-09T05:15:57.510Z,11.73
2024-05-09T05:18:27.513Z,11.83
2024-05-09T05:21:01.037Z,11.90
2024-05-09T05:23:28.163Z,12.02
2024-05-09T05:25:55.752Z,11.92
2024-05-09T05:28:23.182Z,12.03
2024-05-09T05:30:50.304Z,12.15
2024-05-09T05:33:22.994Z,12.28
2024-05-09T05:35:50.458Z,12.44
2024-05-09T05:38:17.423Z,12.36
2024-05-09T05:40:47.040Z,12.39
2024-05-09T05:43:18.514Z,12.50
2024-05-09T05:45:46.400Z,12.53
2024-05-09T05:48:16.708Z,12.68
2024-05-09T05:50:44.680Z,12.75
2024-05-09T05:53:11.649Z,12.83
2024-05-09T05:55:42.850Z,12.98
2024-05-09T05:58:11.190Z,13.13
2024-05-09T06:00:40.341Z,13.20
2024-05-09T06:03:09.720Z,13.26
2024-05-09T06:05:39.967Z,13.38
2024-05-09T06:08:07.789Z,13.42
2024-05-09T06:10:38.958Z,13.52
2024-05-09T06:13:11.472Z,13.60
2024-05-09T06:15:39.882Z,13.74
2024-05-09T06:18:09.068Z,13.84
2024-05-09T06:20:38.249Z,13.94
2024-05-09T06:23:10.356Z,14.08
2024-05-09T06:25:37.582Z,14.23
2024-05-09T06:28:05.168Z,14.31
2024-05-09T06:30:39.349Z,14.36
2024-05-09T06:33:11.793Z,14.53
2024-05-09T06:35:40.927Z,14.64
2024-05-09T06:38:11.850Z,14.72
2024-05-09T06:40:41.738Z,14.91
2024-05-09T06:43:18.216Z,15.01
2024-05-09T06:45:48.671Z,15.02
2024-05-09T06:48:19.319Z,15.11
2024-05-09T06:50:46.901Z,15.14
2024-05-09T06:53:21.069Z,15.21
2024-05-09T06:55:48.206Z,15.31
2024-05-09T06:58:15.828Z,15.36
2024-05-09T07:00:42.849Z,15.38
2024-05-09T07:03:13.083Z,15.53
2024-05-09T07:05:42.348Z,15.63
2024-05-09T07:08:09.584Z,15.71
2024-05-09T07:10:37.180Z,16.02
2024-05-09T07:13:12.297Z,16.28
2024-05-09T07:15:40.383Z,16.69
2024-05-09T07:18:18.600Z,16.77
2024-05-09T07:20:48.033Z,16.88
2024-05-09T07:23:16.237Z,17.03
2024-05-09T07:25:43.360Z,17.38
2024-05-09T07:28:18.417Z,17.66
2024-05-09T07:30:45.922Z,17.79
2024-05-09T07:33:22.298Z,17.97
2024-05-09T07:35:50.630Z,18.21
2024-05-09T07:38:17.579Z,18.24
2024-05-09T07:40:44.568Z,18.34
2024-05-09T07:43:14.731Z,18.70
2024-05-09T07:45:51.259Z,19.14
2024-05-09T07:52:37.874Z,19.58
2024-05-09T07:53:47.666Z,19.91
2024-05-09T07:56:19.703Z,20.23
2024-05-09T07:58:49.955Z,20.33
2024-05-09T08:01:17.004Z,20.35
2024-05-09T08:03:44.452Z,20.43
2024-05-09T08:06:11.506Z,20.65
2024-05-09T08:08:38.315Z,20.85
2024-05-09T08:11:06.712Z,20.89
2024-05-09T08:13:33.694Z,21.26
2024-05-09T08:16:00.856Z,21.63
2024-05-09T08:18:27.996Z,22.00
2024-05-09T08:20:54.996Z,22.35
2024-05-09T08:23:23.702Z,22.58
2024-05-09T08:25:50.891Z,22.84
2024-05-09T08:28:17.945Z,23.31
2024-05-09T08:30:45.318Z,23.56
2024-05-09T08:33:12.631Z,23.92
2024-05-09T08:35:39.650Z,24.09
2024-05-09T08:38:07.774Z,24.43
2024-05-09T08:40:36.976Z,24.96
2024-05-09T08:43:11.452Z,25.37
2024-05-09T08:45:44.127Z,25.74
2024-05-09T08:48:15.090Z,25.81
2024-05-09T08:50:44.798Z,26.59
2024-05-09T08:53:12.740Z,27.01
2024-05-09T08:55:43.238Z,27.40
2024-05-09T08:58:16.615Z,27.89
2024-05-09T09:00:45.574Z,28.28
2024-05-09T09:03:19.921Z,28.67
2024-05-09T09:05:59.247Z,29.09
2024-05-09T09:08:26.597Z,29.35
2024-05-09T09:10:58.153Z,29.21
2024-05-09T09:13:26.407Z,28.81
2024-05-09T09:15:57.759Z,28.98
2024-05-09T09:18:26.868Z,29.16
2024-05-09T09:20:53.996Z,29.20
2024-05-09T09:23:21.235Z,29.38
2024-05-09T09:25:48.142Z,29.99
2024-05-09T09:28:15.539Z,30.48
2024-05-09T09:30:43.589Z,30.44
2024-05-09T09:33:11.794Z,30.26
2024-05-09T09:35:40.783Z,30.32
2024-05-09T09:38:10.259Z,30.11
2024-05-09T09:40:46.730Z,29.33
2024-05-09T09:43:22.028Z,28.25
2024-05-09T09:45:55.370Z,27.20
2024-05-09T09:48:23.246Z,27.03
2024-05-09T09:50:52.866Z,26.88
2024-05-09T09:53:20.079Z,26.15
2024-05-09T09:55:48.450Z,26.87
2024-05-09T09:58:18.137Z,27.75
2024-05-09T10:00:45.638Z,28.50
2024-05-09T10:03:12.846Z,27.92
2024-05-09T10:05:42.116Z,27.11
2024-05-09T10:08:13.129Z,26.27
2024-05-09T10:10:40.299Z,25.52
2024-05-09T10:13:08.697Z,25.82
2024-05-09T10:15:53.383Z,26.82
2024-05-09T10:18:29.192Z,27.61
2024-05-09T10:20:59.692Z,27.68
2024-05-09T10:23:29.644Z,26.81
2024-05-09T10:26:00.982Z,25.75
2024-05-09T10:28:29.915Z,24.21
2024-05-09T10:31:14.521Z,23.53
2024-05-09T10:33:51.012Z,23.08
2024-05-09T10:36:21.922Z,23.77
2024-05-09T10:38:50.666Z,23.63
2024-05-09T10:41:19.443Z,23.74
2024-05-09T10:43:47.794Z,23.91
2024-05-09T10:46:15.805Z,25.10
2024-05-09T10:48:44.528Z,26.27
2024-05-09T10:51:12.071Z,26.72
2024-05-09T10:53:46.477Z,27.40
2024-05-09T10:56:14.926Z,28.40
2024-05-09T10:58:41.966Z,29.08
2024-05-09T11:01:10.404Z,29.80
2024-05-09T11:03:39.018Z,30.42
2024-05-09T11:06:07.292Z,31.05
2024-05-09T11:08:35.259Z,31.49
2024-05-09T11:11:07.816Z,31.77
2024-05-09T11:13:38.079Z,31.91
2024-05-09T11:16:15.884Z,32.31
2024-05-09T11:18:43.508Z,32.82
2024-05-09T11:21:14.049Z,33.04
2024-05-09T11:23:41.464Z,33.09
2024-05-09T11:26:09.265Z,33.50
2024-05-09T11:28:36.326Z,33.83
2024-05-09T11:31:08.033Z,33.64
2024-05-09T11:33:41.320Z,34.16
2024-05-09T11:36:09.637Z,34.53
2024-05-09T11:38:36.829Z,34.90
2024-05-09T11:41:05.072Z,35.39
2024-05-09T11:43:32.298Z,35.11
2024-05-09T11:46:00.252Z,35.30
2024-05-09T11:48:27.758Z,35.53
2024-05-09T11:50:56.824Z,35.61
2024-05-09T11:53:24.176Z,35.46
2024-05-09T11:55:51.117Z,35.48
2024-05-09T11:58:19.157Z,35.46
2024-05-09T12:00:46.951Z,35.70
2024-05-09T12:03:14.540Z,36.03
2024-05-09T12:05:41.838Z,36.11
2024-05-09T12:08:08.976Z,36.38
2024-05-09T12:10:36.964Z,36.52
2024-05-09T12:13:06.341Z,36.50
2024-05-09T12:15:37.525Z,36.15
2024-05-09T12:18:07.598Z,35.68
2024-05-09T12:20:38.450Z,35.81
2024-05-09T12:23:09.979Z,35.83
2024-05-09T12:25:38.935Z,35.57
2024-05-09T12:28:07.203Z,35.57
2024-05-09T12:30:38.448Z,35.87
2024-05-09T12:33:12.710Z,35.63
2024-05-09T12:35:41.762Z,35.28
2024-05-09T12:38:09.868Z,35.50
2024-05-09T12:40:38.676Z,36.07
2024-05-09T12:43:08.635Z,35.71
2024-05-09T12:45:37.356Z,35.80
2024-05-09T12:48:07.512Z,35.94
2024-05-09T12:50:35.070Z,35.61
2024-05-09T12:53:03.918Z,34.80
2024-05-09T12:55:40.480Z,34.41
2024-05-09T12:58:16.834Z,35.14
2024-05-09T13:00:45.251Z,35.76
2024-05-09T13:03:12.471Z,34.60
2024-05-09T13:05:41.538Z,33.13
2024-05-09T13:08:09.250Z,33.38
2024-05-09T13:10:36.977Z,34.26
2024-05-09T13:13:04.479Z,35.25
2024-05-09T13:15:31.675Z,35.76
2024-05-09T13:18:02.230Z,35.80
2024-05-09T13:20:34.458Z,35.91
2024-05-09T13:23:08.248Z,36.00
2024-05-09T13:25:37.129Z,36.21
2024-05-09T13:28:05.548Z,36.42
2024-05-09T13:30:40.089Z,35.81
2024-05-09T13:33:14.032Z,34.36
2024-05-09T13:35:48.790Z,33.74
2024-05-09T13:38:21.345Z,32.87
2024-05-09T13:40:49.049Z,31.58
2024-05-09T13:43:17.679Z,32.65
2024-05-09T13:45:44.954Z,33.18
2024-05-09T13:48:12.429Z,33.50
2024-05-09T13:50:39.641Z,34.10
2024-05-09T13:53:07.803Z,34.43
2024-05-09T13:55:38.630Z,34.87
2024-05-09T13:58:06.442Z,35.19
2024-05-09T14:00:44.011Z,35.69
2024-05-09T14:03:20.041Z,36.19
2024-05-09T14:05:49.987Z,36.20
2024-05-09T14:08:19.952Z,36.13
2024-05-09T14:10:48.488Z,34.60
2024-05-09T14:13:16.161Z,34.92
2024-05-09T14:15:43.484Z,35.55
2024-05-09T14:18:13.428Z,35.48
2024-05-09T14:20:42.102Z,35.58
2024-05-09T14:23:09.275Z,35.41
2024-05-09T14:25:40.354Z,35.28
2024-05-09T14:28:10.243Z,34.92
2024-05-09T14:30:38.761Z,34.46
2024-05-09T14:33:07.243Z,34.33
2024-05-09T14:35:35.481Z,34.74
2024-05-09T14:38:03.426Z,34.83
2024-05-09T14:40:40.519Z,35.20
2024-05-09T14:43:14.810Z,35.12
2024-05-09T14:45:42.796Z,35.12
2024-05-09T14:48:10.961Z,34.85
2024-05-09T14:50:39.868Z,34.82
2024-05-09T14:53:12.057Z,34.99
2024-05-09T14:55:40.748Z,35.07
2024-05-09T14:58:10.396Z,35.17
2024-05-09T15:00:44.786Z,35.00
2024-05-09T15:03:15.367Z,35.03
2024-05-09T15:05:42.524Z,34.84
2024-05-09T15:08:09.603Z,34.75
2024-05-09T15:10:37.859Z,34.47
2024-05-09T15:13:08.093Z,34.24
2024-05-09T15:15:37.262Z,34.03
2024-05-09T15:18:06.325Z,33.71
2024-05-09T15:20:36.399Z,33.08
2024-05-09T15:23:05.699Z,32.57
2024-05-09T15:25:33.871Z,32.04
2024-05-09T15:28:01.169Z,31.64
2024-05-09T15:30:31.580Z,31.07
2024-05-09T15:33:01.312Z,30.37
2024-05-09T15:35:28.688Z,29.96
2024-05-09T15:37:55.988Z,29.49
2024-05-09T15:40:31.667Z,28.92
2024-05-09T15:43:06.190Z,28.40
2024-05-09T15:45:34.366Z,27.56
2024-05-09T15:48:03.119Z,26.71
2024-05-09T15:50:37.457Z,26.17
2024-05-09T15:53:09.225Z,25.57
2024-05-09T15:55:36.965Z,25.07
2024-05-09T15:58:05.260Z,24.82
2024-05-09T16:00:38.470Z,24.76
2024-05-09T16:03:12.204Z,24.67
2024-05-09T16:05:41.009Z,24.67
2024-05-09T16:08:08.680Z,24.57
2024-05-09T16:10:37.068Z,24.47
2024-05-09T16:13:05.194Z,24.30
2024-05-09T16:15:32.408Z,23.79
2024-05-09T16:18:00.743Z,23.58
2024-05-09T16:20:37.310Z,23.53
2024-05-09T16:23:08.484Z,23.20
2024-05-09T16:25:35.858Z,23.12
2024-05-09T16:28:08.342Z,22.86
2024-05-09T16:30:38.192Z,22.84
2024-05-09T16:33:06.303Z,22.90
2024-05-09T16:35:34.982Z,22.77
2024-05-09T16:38:04.080Z,22.70
2024-05-09T16:40:37.923Z,22.55
2024-05-09T16:43:11.921Z,22.52
2024-05-09T16:45:41.147Z,22.45
2024-05-09T16:48:09.306Z,22.44
2024-05-09T16:50:36.816Z,22.50
2024-05-09T16:53:05.896Z,22.35
2024-05-09T16:55:33.818Z,22.22
2024-05-09T16:58:02.175Z,22.10
2024-05-09T17:00:39.198Z,21.96
2024-05-09T17:03:12.704Z,21.93
2024-05-09T17:05:41.384Z,21.86
2024-05-09T17:08:08.855Z,21.84
2024-05-09T17:10:36.711Z,21.86
2024-05-09T17:13:06.249Z,21.89
2024-05-09T17:15:34.970Z,21.84
2024-05-09T17:18:03.080Z,21.80
2024-05-09T17:20:34.494Z,21.73
2024-05-09T17:23:05.866Z,21.55
2024-05-09T17:25:34.158Z,21.45
2024-05-09T17:28:06.916Z,21.48
2024-05-09T17:30:37.907Z,21.41
2024-05-09T17:33:09.012Z,21.39
2024-05-09T17:35:39.485Z,21.24
2024-05-09T17:38:09.088Z,21.20
2024-05-09T17:40:37.978Z,21.13
2024-05-09T17:43:08.811Z,21.18
2024-05-09T17:45:39.143Z,21.17
2024-05-09T17:48:14.248Z,21.16
2024-05-09T17:50:43.635Z,21.07
2024-05-09T17:53:11.168Z,21.02
2024-05-09T17:55:39.412Z,20.96
2024-05-09T17:58:09.975Z,20.88
2024-05-09T18:00:41.331Z,20.82
2024-05-09T18:03:14.030Z,20.77
2024-05-09T18:05:45.627Z,20.74
2024-05-09T18:08:16.079Z,20.69
2024-05-09T18:10:49.454Z,20.59
2024-05-09T18:13:17.302Z,20.49
2024-05-09T18:15:47.302Z,20.43
2024-05-09T18:18:16.727Z,20.38
2024-05-09T18:20:45.847Z,20.29
2024-05-09T18:23:19.117Z,20.26
2024-05-09T18:25:49.683Z,20.21
2024-05-09T18:28:19.287Z,20.15
2024-05-09T18:30:46.407Z,20.03
2024-05-09T18:33:14.046Z,19.91
2024-05-09T18:35:45.207Z,19.75
2024-05-09T18:38:19.917Z,19.63
2024-05-09T18:40:49.974Z,19.51
2024-05-09T18:43:17.422Z,19.40
2024-05-09T18:45:51.554Z,19.31
2024-05-09T18:48:18.850Z,19.20
2024-05-09T18:50:45.967Z,19.11
2024-05-09T18:53:14.224Z,19.00
2024-05-09T18:55:43.862Z,18.91
2024-05-09T18:58:11.317Z,18.85
2024-05-09T19:00:41.114Z,18.77
2024-05-09T19:03:12.754Z,18.70
2024-05-09T19:05:43.559Z,18.68
2024-05-09T19:08:11.804Z,18.61
2024-05-09T19:10:39.555Z,18.52
2024-05-09T19:13:11.657Z,18.45
2024-05-09T19:15:41.952Z,18.36
2024-05-09T19:18:11.412Z,18.33
2024-05-09T19:20:39.976Z,18.29
2024-05-09T19:23:09.878Z,18.22
2024-05-09T19:25:36.988Z,18.19
2024-05-09T19:28:05.168Z,18.13
2024-05-09T19:30:38.899Z,18.06
2024-05-09T19:33:13.503Z,17.99
2024-05-09T19:35:42.079Z,17.94
2024-05-09T19:38:09.120Z,17.85
2024-05-09T19:40:36.488Z,17.78
2024-05-09T19:43:05.696Z,17.73
2024-05-09T19:45:35.074Z,17.67
2024-05-09T19:48:03.750Z,17.61
2024-05-09T19:50:37.794Z,17.57
2024-05-09T19:53:10.686Z,17.53
2024-05-09T19:55:38.113Z,17.42
2024-05-09T19:58:07.155Z,17.35
2024-05-09T20:00:38.357Z,17.28
2024-05-09T20:03:10.380Z,17.27
2024-05-09T20:05:40.290Z,17.26
2024-05-09T20:08:07.927Z,17.26
2024-05-09T20:10:36.233Z,17.15
2024-05-09T20:13:06.597Z,17.09
2024-05-09T20:15:35.699Z,17.09
2024-05-09T20:18:03.317Z,17.04
2024-05-09T20:20:37.442Z,16.97
2024-05-09T20:23:08.882Z,16.93
2024-05-09T20:25:35.987Z,16.87
2024-05-09T20:28:03.085Z,16.77
2024-05-09T20:30:32.949Z,16.72
2024-05-09T20:33:08.650Z,16.66
2024-05-09T20:35:36.868Z,16.59
2024-05-09T20:38:04.479Z,16.56
2024-05-09T20:40:35.902Z,16.52
2024-05-09T20:43:07.256Z,16.49
2024-05-09T20:45:34.875Z,16.46
2024-05-09T20:48:03.545Z,16.41
2024-05-09T20:50:38.443Z,16.40
2024-05-09T20:53:14.008Z,16.36
2024-05-09T20:55:44.921Z,16.33
2024-05-09T20:58:12.708Z,16.29
2024-05-09T21:00:45.498Z,16.21
2024-05-09T21:03:16.374Z,16.14
2024-05-09T21:05:44.380Z,16.09
2024-05-09T21:08:11.623Z,16.02
2024-05-09T21:10:39.136Z,15.98
2024-05-09T21:13:07.278Z,15.97
2024-05-09T21:15:35.634Z,15.91
2024-05-09T21:18:03.568Z,15.88
2024-05-09T21:20:37.306Z,15.83
2024-05-09T21:23:08.807Z,15.81
2024-05-09T21:25:36.057Z,15.74
2024-05-09T21:28:21.538Z,15.70
2024-05-09T21:30:51.640Z,15.66
2024-05-09T21:33:19.267Z,15.67
2024-05-09T21:35:49.456Z,15.66
2024-05-09T21:38:16.537Z,15.61
2024-05-09T21:40:44.341Z,15.57
2024-05-09T21:43:22.463Z,15.52
2024-05-09T21:45:49.623Z,15.53
2024-05-09T21:48:16.642Z,15.49
2024-05-09T21:50:43.708Z,15.45
2024-05-09T21:53:13.213Z,15.42
2024-05-09T21:55:43.488Z,15.38
2024-05-09T21:58:15.019Z,15.36
2024-05-09T22:00:45.577Z,15.39
2024-05-09T22:03:12.945Z,15.35
2024-05-09T22:05:45.088Z,15.27
2024-05-09T22:08:13.275Z,15.28
2024-05-09T22:10:40.591Z,15.24
2024-05-09T22:13:08.906Z,15.24
2024-05-09T22:15:38.497Z,15.19
2024-05-09T22:18:08.601Z,15.13
2024-05-09T22:20:39.080Z,15.12
2024-05-09T22:23:08.268Z,15.09
2024-05-09T22:25:37.260Z,15.08
2024-05-09T22:28:05.391Z,15.05
2024-05-09T22:30:37.171Z,15.02
2024-05-09T22:33:24.498Z,15.03
2024-05-09T22:35:52.686Z,14.97
2024-05-09T22:38:19.661Z,14.97
2024-05-09T22:40:56.382Z,14.88
2024-05-09T22:43:24.967Z,14.91
2024-05-09T22:45:55.610Z,14.88
2024-05-09T22:48:29.691Z,14.86
2024-05-09T22:50:56.852Z,14.84
2024-05-09T22:53:27.747Z,14.80
2024-05-09T22:55:54.826Z,14.81
2024-05-09T22:58:24.419Z,14.76
2024-05-09T23:00:52.206Z,14.71
2024-05-09T23:03:21.783Z,14.67
2024-05-09T23:05:51.000Z,14.60
2024-05-09T23:08:25.381Z,14.53
2024-05-09T23:10:52.399Z,14.52
2024-05-09T23:13:19.625Z,14.49
2024-05-09T23:15:50.652Z,14.45
2024-05-09T23:18:19.956Z,14.43
2024-05-09T23:20:46.984Z,14.38
2024-05-09T23:23:13.977Z,14.32
2024-05-09T23:25:47.736Z,14.31
2024-05-09T23:28:14.810Z,14.27
2024-05-09T23:30:42.356Z,14.24
2024-05-09T23:33:13.703Z,14.20
2024-05-09T23:35:42.334Z,14.19
2024-05-09T23:38:09.265Z,14.12
2024-05-09T23:40:39.705Z,14.07
2024-05-09T23:43:10.746Z,14.03
2024-05-09T23:45:38.340Z,14.02
2024-05-09T23:48:06.475Z,13.99
2024-05-09T23:50:36.913Z,13.96
2024-05-09T23:53:07.982Z,14.00
2024-05-09T23:55:36.363Z,13.98
2024-05-09T23:58:03.524Z,13.91
